createdAt,value
2023-01-23T00:01:32.525Z,10.70
2023-01-23T00:04:02.063Z,11.27
2023-01-23T00:06:31.962Z,11.60
2023-01-23T00:09:01.659Z,10.18
2023-01-23T00:11:34.757Z,11.40
2023-01-23T00:14:05.684Z,11.18
2023-01-23T00:16:33.414Z,11.75
2023-01-23T00:19:03.519Z,10.88
2023-01-23T00:21:31.165Z,13.15
2023-01-23T00:23:59.845Z,12.73
2023-01-23T00:26:30.109Z,12.20
2023-01-23T00:28:57.680Z,11.23
2023-01-23T00:31:29.172Z,12.23
2023-01-23T00:34:01.084Z,12.85
2023-01-23T00:36:30.533Z,13.32
2023-01-23T00:38:58.461Z,12.98
2023-01-23T00:41:28.561Z,12.95
2023-01-23T00:43:55.928Z,12.80
2023-01-23T00:46:27.990Z,13.10
2023-01-23T00:48:55.345Z,12.98
2023-01-23T00:51:22.870Z,12.20
2023-01-23T00:53:50.313Z,12.98
2023-01-23T00:56:17.859Z,12.98
2023-01-23T00:58:45.458Z,13.32
2023-01-23T01:01:13.927Z,14.00
2023-01-23T01:03:44.717Z,13.82
2023-01-23T01:06:14.457Z,13.02
2023-01-23T01:08:41.653Z,14.02
2023-01-23T01:11:09.052Z,13.43
2023-01-23T01:13:38.676Z,13.80
2023-01-23T01:16:06.722Z,14.02
2023-01-23T01:18:36.779Z,14.57
2023-01-23T01:21:09.364Z,14.63
2023-01-23T01:23:39.973Z,14.60
2023-01-23T01:26:10.633Z,13.73
2023-01-23T01:28:39.453Z,15.15
2023-01-23T01:31:12.044Z,14.85
2023-01-23T01:33:40.543Z,15.32
2023-01-23T01:36:15.922Z,14.73
2023-01-23T01:38:43.356Z,15.52
2023-01-23T01:41:12.361Z,16.13
2023-01-23T01:43:40.573Z,15.18
2023-01-23T01:46:23.100Z,15.48
2023-01-23T01:49:08.333Z,15.73
2023-01-23T01:51:41.570Z,15.98
2023-01-23T01:57:08.136Z,16.70
2023-01-23T01:59:47.157Z,16.13
2023-01-23T02:02:21.317Z,16.80
2023-01-23T02:04:52.910Z,17.63
2023-01-23T02:07:49.509Z,18.42
2023-01-23T02:10:16.798Z,16.90
2023-01-23T02:12:51.204Z,18.27
2023-01-23T02:15:21.440Z,17.42
2023-01-23T02:17:54.874Z,17.38
2023-01-23T02:20:30.896Z,17.50
2023-01-23T02:23:20.877Z,18.13
2023-01-23T02:25:53.761Z,16.83
2023-01-23T02:28:21.245Z,18.17
2023-01-23T02:30:50.552Z,18.13
2023-01-23T02:33:20.974Z,17.50
2023-01-23T02:35:48.359Z,17.40
2023-01-23T02:38:17.556Z,17.50
2023-01-23T02:40:47.288Z,17.42
2023-01-23T02:43:19.193Z,17.45
2023-01-23T02:45:46.605Z,18.17
2023-01-23T02:48:18.901Z,16.73
2023-01-23T02:50:48.681Z,18.20
2023-01-23T02:53:16.005Z,17.88
2023-01-23T02:55:45.981Z,17.65
2023-01-23T02:58:32.318Z,17.02
2023-01-23T03:00:59.632Z,16.60
2023-01-23T03:03:30.604Z,17.63
2023-01-23T03:05:59.233Z,16.20
2023-01-23T03:08:36.110Z,17.52
2023-01-23T03:11:04.626Z,16.33
2023-01-23T03:13:32.945Z,16.00
2023-01-23T03:16:00.238Z,15.70
2023-01-23T03:18:27.708Z,16.00
2023-01-23T03:20:54.959Z,15.40
2023-01-23T03:23:22.194Z,15.15
2023-01-23T03:25:49.448Z,15.15
2023-01-23T03:28:35.261Z,16.27
2023-01-23T03:31:04.890Z,16.42
2023-01-23T03:33:32.178Z,15.95
2023-01-23T03:35:59.435Z,16.02
2023-01-23T03:38:26.947Z,16.50
2023-01-23T03:41:12.545Z,16.02
2023-01-23T03:43:39.775Z,16.08
2023-01-23T03:46:09.776Z,15.55
2023-01-23T03:48:37.239Z,15.65
2023-01-23T03:51:04.756Z,15.77
2023-01-23T03:53:34.263Z,15.02
2023-01-23T03:56:02.083Z,14.88
2023-01-23T03:58:32.005Z,15.93
2023-01-23T04:01:03.427Z,15.15
2023-01-23T04:03:30.797Z,16.45
2023-01-23T04:06:02.811Z,15.18
2023-01-23T04:08:30.136Z,15.80
2023-01-23T04:11:09.829Z,15.98
2023-01-23T04:13:37.582Z,16.90
2023-01-23T04:16:06.039Z,16.02
2023-01-23T04:18:34.443Z,16.63
2023-01-23T04:21:01.826Z,16.05
2023-01-23T04:23:29.100Z,16.63
2023-01-23T04:25:58.810Z,15.40
2023-01-23T04:28:28.302Z,17.42
2023-01-23T04:31:01.524Z,16.45
2023-01-23T04:33:29.023Z,16.42
2023-01-23T04:36:04.544Z,16.95
2023-01-23T04:38:32.653Z,16.67
2023-01-23T04:41:05.138Z,16.50
2023-01-23T04:43:35.916Z,17.42
2023-01-23T04:46:03.292Z,18.92
2023-01-23T04:48:32.804Z,16.50
2023-01-23T04:51:02.628Z,16.67
2023-01-23T04:53:29.999Z,17.17
2023-01-23T04:55:57.462Z,16.52
2023-01-23T04:58:24.975Z,17.05
2023-01-23T05:00:52.270Z,15.80
2023-01-23T05:03:24.143Z,16.52
2023-01-23T05:05:56.205Z,16.63
2023-01-23T05:08:23.410Z,15.60
2023-01-23T05:10:50.646Z,15.82
2023-01-23T05:13:20.368Z,16.92
2023-01-23T05:15:50.147Z,15.43
2023-01-23T05:18:17.427Z,15.90
2023-01-23T05:20:47.173Z,15.95
2023-01-23T05:23:14.429Z,17.42
2023-01-23T05:25:41.760Z,16.58
2023-01-23T05:28:11.647Z,15.25
2023-01-23T05:30:43.436Z,15.48
2023-01-23T05:33:10.734Z,17.25
2023-01-23T05:35:39.277Z,17.40
2023-01-23T05:38:06.594Z,15.15
2023-01-23T05:40:38.523Z,16.38
2023-01-23T05:43:06.643Z,16.42
2023-01-23T05:45:34.792Z,16.70
2023-01-23T05:48:04.314Z,17.08
2023-01-23T05:50:33.710Z,15.95
2023-01-23T05:53:01.748Z,16.98
2023-01-23T05:55:28.984Z,15.93
2023-01-23T05:57:58.549Z,15.20
2023-01-23T06:00:30.682Z,16.00
2023-01-23T06:02:58.006Z,16.65
2023-01-23T06:05:27.731Z,17.85
2023-01-23T06:07:55.409Z,16.25
2023-01-23T06:10:25.036Z,16.88
2023-01-23T06:12:52.655Z,15.98
2023-01-23T06:15:22.302Z,16.80
2023-01-23T06:17:49.644Z,16.10
2023-01-23T06:20:17.132Z,15.98
2023-01-23T06:22:44.444Z,16.60
2023-01-23T06:25:18.366Z,16.92
2023-01-23T06:27:47.759Z,15.73
2023-01-23T06:30:17.633Z,16.80
2023-01-23T06:32:45.121Z,15.70
2023-01-23T06:35:12.424Z,16.10
2023-01-23T06:37:42.241Z,15.93
2023-01-23T06:40:13.387Z,15.60
2023-01-23T06:42:42.073Z,15.63
2023-01-23T06:45:11.047Z,15.48
2023-01-23T06:47:38.329Z,16.45
2023-01-23T06:50:05.880Z,16.02
2023-01-23T06:52:33.577Z,14.45
2023-01-23T06:55:03.285Z,15.07
2023-01-23T06:57:30.572Z,16.35
2023-01-23T07:00:00.049Z,15.85
2023-01-23T07:02:27.445Z,16.10
2023-01-23T07:04:54.784Z,15.98
2023-01-23T07:07:24.440Z,15.55
2023-01-23T07:09:51.667Z,15.93
2023-01-23T07:12:18.904Z,15.63
2023-01-23T07:14:46.324Z,15.18
2023-01-23T07:17:13.567Z,15.70
2023-01-23T07:19:40.805Z,16.73
2023-01-23T07:22:08.715Z,16.25
2023-01-23T07:24:38.545Z,16.85
2023-01-23T07:27:05.766Z,16.85
2023-01-23T07:29:33.024Z,15.57
2023-01-23T07:32:02.363Z,15.75
2023-01-23T07:34:32.663Z,16.90
2023-01-23T07:36:59.936Z,17.27
2023-01-23T07:39:29.395Z,16.58
2023-01-23T07:41:56.663Z,16.42
2023-01-23T07:44:23.906Z,16.80
2023-01-23T07:46:51.205Z,17.05
2023-01-23T07:49:19.763Z,15.65
2023-01-23T07:51:47.015Z,16.67
2023-01-23T07:54:14.550Z,16.60
2023-01-23T07:56:41.840Z,16.95
2023-01-23T07:59:09.114Z,16.75
2023-01-23T08:01:41.226Z,15.05
2023-01-23T08:04:08.534Z,18.48
2023-01-23T08:06:36.610Z,15.80
2023-01-23T08:09:03.954Z,16.75
2023-01-23T08:11:34.477Z,16.52
2023-01-23T08:14:02.012Z,16.38
2023-01-23T08:16:29.344Z,16.45
2023-01-23T08:18:56.664Z,15.27
2023-01-23T08:21:24.100Z,15.02
2023-01-23T08:23:53.582Z,15.57
2023-01-23T08:26:23.024Z,17.10
2023-01-23T08:28:50.260Z,16.15
2023-01-23T08:31:17.551Z,15.73
2023-01-23T08:33:44.883Z,16.70
2023-01-23T08:36:13.545Z,17.42
2023-01-23T08:38:43.080Z,15.30
2023-01-23T08:41:12.880Z,16.88
2023-01-23T08:43:42.860Z,16.00
2023-01-23T08:46:11.325Z,17.08
2023-01-23T08:48:40.772Z,17.67
2023-01-23T08:51:11.151Z,17.02
2023-01-23T08:53:38.874Z,16.38
2023-01-23T08:56:08.818Z,17.63
2023-01-23T08:58:38.287Z,16.13
2023-01-23T09:01:15.142Z,17.20
2023-01-23T09:03:42.455Z,16.65
2023-01-23T09:06:14.318Z,16.73
2023-01-23T09:08:46.189Z,16.98
2023-01-23T09:11:14.105Z,16.75
2023-01-23T09:13:41.525Z,16.27
2023-01-23T09:16:11.414Z,17.70
2023-01-23T09:18:41.007Z,17.17
2023-01-23T09:21:13.613Z,17.65
2023-01-23T09:23:40.838Z,17.73
2023-01-23T09:26:10.332Z,15.88
2023-01-23T09:28:42.348Z,15.82
2023-01-23T09:31:11.917Z,16.60
2023-01-23T09:33:40.953Z,16.33
2023-01-23T09:36:08.901Z,16.55
2023-01-23T09:38:36.438Z,17.65
2023-01-23T09:41:28.044Z,16.25
2023-01-23T09:44:07.377Z,15.60
2023-01-23T09:47:02.688Z,16.17
2023-01-23T09:49:55.969Z,16.75
2023-01-23T09:52:31.198Z,15.70
2023-01-23T09:55:01.775Z,16.80
2023-01-23T09:57:35.576Z,16.98
2023-01-23T10:00:23.819Z,16.67
2023-01-23T10:02:53.462Z,16.23
2023-01-23T10:05:43.429Z,16.50
2023-01-23T10:08:25.783Z,16.60
2023-01-23T10:11:01.351Z,16.90
2023-01-23T10:13:40.540Z,14.02
2023-01-23T10:16:17.099Z,16.08
2023-01-23T10:19:11.188Z,14.40
2023-01-23T10:21:49.790Z,16.15
2023-01-23T10:25:02.175Z,14.88
2023-01-23T10:27:47.703Z,16.25
2023-01-23T10:30:20.494Z,15.38
2023-01-23T10:33:10.558Z,15.93
2023-01-23T10:35:55.118Z,15.55
2023-01-23T10:39:03.258Z,15.68
2023-01-23T10:41:33.807Z,16.33
2023-01-23T10:44:02.109Z,16.58
2023-01-23T10:46:38.215Z,16.20
2023-01-23T10:49:06.212Z,17.40
2023-01-23T10:51:48.803Z,15.52
2023-01-23T10:54:31.684Z,16.38
2023-01-23T10:57:24.848Z,15.93
2023-01-23T11:00:08.453Z,17.17
2023-01-23T11:05:50.332Z,16.88
2023-01-23T11:08:37.194Z,16.65
2023-01-23T11:11:16.806Z,17.30
2023-01-23T11:13:48.309Z,16.35
2023-01-23T11:16:25.936Z,17.05
2023-01-23T11:19:18.193Z,17.60
2023-01-23T11:21:58.139Z,18.40
2023-01-23T11:24:39.031Z,18.52
2023-01-23T11:27:28.106Z,18.90
2023-01-23T11:30:26.341Z,17.23
2023-01-23T11:33:09.069Z,16.95
2023-01-23T11:36:22.268Z,16.73
2023-01-23T11:39:16.768Z,17.65
2023-01-23T11:41:46.175Z,17.95
2023-01-23T11:44:19.339Z,18.85
2023-01-23T11:47:06.151Z,17.13
2023-01-23T11:50:14.221Z,17.13
2023-01-23T11:53:08.946Z,16.60
2023-01-23T11:56:03.534Z,17.55
2023-01-23T11:58:56.266Z,16.70
2023-01-23T12:01:31.340Z,18.27
2023-01-23T12:04:21.569Z,16.35
2023-01-23T12:06:55.227Z,16.52
2023-01-23T12:09:27.493Z,16.25
2023-01-23T12:12:43.092Z,17.05
2023-01-23T12:15:46.834Z,15.90
2023-01-23T12:18:29.348Z,16.10
2023-01-23T12:21:02.648Z,15.85
2023-01-23T12:23:37.642Z,14.52
2023-01-23T12:26:13.261Z,16.67
2023-01-23T12:28:58.363Z,15.13
2023-01-23T12:31:44.313Z,15.68
2023-01-23T12:34:14.376Z,15.48
2023-01-23T12:37:29.166Z,15.07
2023-01-23T12:40:15.618Z,14.48
2023-01-23T12:42:57.531Z,15.68
2023-01-23T12:45:27.832Z,14.07
2023-01-23T12:48:14.790Z,15.30
2023-01-23T12:51:05.963Z,14.98
2023-01-23T12:53:39.756Z,16.15
2023-01-23T12:56:07.292Z,15.65
2023-01-23T12:58:37.656Z,15.63
2023-01-23T13:01:05.177Z,15.57
2023-01-23T13:03:51.149Z,15.30
2023-01-23T13:06:25.127Z,14.98
2023-01-23T13:09:17.952Z,16.70
2023-01-23T13:12:21.820Z,15.85
2023-01-23T13:15:10.650Z,16.98
2023-01-23T13:17:48.797Z,16.67
2023-01-23T13:20:39.036Z,16.40
2023-01-23T13:23:26.127Z,16.63
2023-01-23T13:26:23.018Z,16.60
2023-01-23T13:28:54.120Z,16.17
2023-01-23T13:31:50.382Z,17.30
2023-01-23T13:34:20.934Z,16.02
2023-01-23T13:36:53.132Z,16.00
2023-01-23T13:39:30.334Z,14.77
2023-01-23T13:42:15.611Z,16.17
2023-01-23T13:45:34.231Z,16.10
2023-01-23T14:22:55.638Z,15.95
2023-01-23T14:25:25.826Z,16.23
2023-01-23T14:28:03.923Z,16.45
2023-01-23T14:30:31.686Z,15.27
2023-01-23T14:32:59.386Z,16.20
2023-01-23T14:35:33.410Z,16.40
2023-01-23T14:38:05.108Z,15.98
2023-01-23T14:40:46.763Z,16.15
2023-01-23T14:43:23.037Z,16.25
2023-01-23T14:46:06.485Z,16.27
2023-01-23T14:48:40.930Z,16.42
2023-01-23T14:51:28.491Z,15.95
2023-01-23T14:54:06.500Z,14.95
2023-01-23T14:56:39.554Z,16.48
2023-01-23T14:59:14.673Z,16.52
2023-01-23T15:01:42.062Z,14.43
2023-01-23T15:04:22.090Z,14.68
2023-01-23T15:06:54.340Z,12.98
2023-01-23T15:09:25.504Z,12.38
2023-01-23T15:11:52.817Z,12.13
2023-01-23T15:14:27.783Z,11.15
2023-01-23T15:17:05.264Z,10.30
2023-01-23T15:19:37.162Z,11.50
2023-01-23T15:22:25.020Z,10.98
2023-01-23T15:24:52.725Z,10.27
2023-01-23T15:27:30.360Z,10.82
2023-01-23T15:30:38.025Z,11.05
2023-01-23T15:33:27.501Z,11.30
2023-01-23T15:36:29.829Z,13.15
2023-01-23T15:39:00.259Z,11.32
2023-01-23T15:41:58.894Z,11.75
2023-01-23T15:44:29.125Z,11.77
2023-01-23T15:47:01.001Z,11.90
2023-01-23T15:49:33.418Z,10.57
2023-01-23T15:52:13.703Z,11.10
2023-01-23T15:54:42.000Z,10.60
2023-01-23T15:57:15.277Z,11.00
2023-01-23T15:59:44.815Z,12.02
2023-01-23T16:02:30.494Z,11.95
2023-01-23T16:04:58.187Z,11.10
2023-01-23T16:07:34.488Z,11.90
2023-01-23T16:10:21.516Z,11.98
2023-01-23T16:12:50.950Z,11.30
2023-01-23T16:15:26.525Z,11.63
2023-01-23T16:17:59.640Z,11.35
2023-01-23T16:20:34.561Z,11.20
2023-01-23T16:23:14.501Z,11.75
2023-01-23T16:25:46.588Z,11.82
2023-01-23T16:28:26.520Z,12.57
2023-01-23T16:30:53.824Z,11.57
2023-01-23T16:33:21.971Z,12.38
2023-01-23T16:35:51.876Z,12.70
2023-01-23T16:38:24.952Z,12.80
2023-01-23T16:40:53.754Z,11.68
2023-01-23T16:43:24.276Z,12.27
2023-01-23T16:45:55.053Z,13.23
2023-01-23T16:48:28.517Z,12.88
2023-01-23T16:51:27.783Z,12.10
2023-01-23T16:54:03.887Z,12.30
2023-01-23T16:56:45.119Z,12.35
2023-01-23T16:59:17.405Z,12.20
2023-01-23T17:01:50.019Z,12.65
2023-01-23T17:04:21.517Z,12.65
2023-01-23T17:06:51.487Z,12.80
2023-01-23T17:09:19.705Z,12.90
2023-01-23T17:11:53.349Z,13.32
2023-01-23T17:14:31.792Z,12.25
2023-01-23T17:17:07.413Z,11.85
2023-01-23T17:19:39.237Z,12.88
2023-01-23T17:22:13.812Z,12.73
2023-01-23T17:24:43.167Z,12.57
2023-01-23T17:27:12.565Z,12.45
2023-01-23T17:29:44.157Z,12.52
2023-01-23T17:32:26.688Z,12.05
2023-01-23T17:34:54.315Z,12.65
2023-01-23T17:37:22.807Z,12.05
2023-01-23T17:39:50.807Z,11.80
2023-01-23T17:42:22.035Z,12.25
2023-01-23T17:44:49.638Z,11.95
2023-01-23T17:47:19.906Z,11.90
2023-01-23T17:49:57.256Z,12.63
2023-01-23T17:52:26.695Z,13.20
2023-01-23T17:54:56.396Z,12.50
2023-01-23T17:57:23.705Z,12.45
2023-01-23T17:59:51.057Z,13.23
2023-01-23T18:02:25.673Z,11.82
2023-01-23T18:04:52.998Z,13.10
2023-01-23T18:07:22.456Z,12.13
2023-01-23T18:09:49.761Z,11.68
2023-01-23T18:12:30.701Z,12.27
2023-01-23T18:15:29.252Z,13.88
2023-01-23T18:18:04.033Z,11.80
2023-01-23T18:20:34.092Z,12.63
2023-01-23T18:23:01.651Z,12.30
2023-01-23T18:25:31.540Z,12.65
2023-01-23T18:28:06.199Z,12.88
2023-01-23T18:30:55.832Z,12.57
2023-01-23T18:33:30.795Z,13.15
2023-01-23T18:36:17.446Z,12.25
2023-01-23T18:39:07.494Z,11.38
2023-01-23T18:41:35.011Z,11.45
2023-01-23T18:44:21.429Z,11.30
2023-01-23T18:46:51.821Z,12.02
2023-01-23T18:49:32.333Z,11.00
2023-01-23T18:52:24.979Z,12.02
2023-01-23T18:55:04.594Z,11.63
2023-01-23T18:57:53.768Z,12.05
2023-01-23T19:00:40.161Z,12.23
2023-01-23T19:03:16.639Z,11.80
2023-01-23T19:05:45.471Z,11.93
2023-01-23T19:08:28.143Z,12.20
2023-01-23T19:11:04.690Z,12.13
2023-01-23T19:14:07.064Z,13.57
2023-01-23T19:16:44.266Z,12.68
2023-01-23T19:19:23.316Z,12.88
2023-01-23T19:21:51.549Z,12.27
2023-01-23T19:24:21.730Z,12.73
2023-01-23T19:26:50.135Z,12.05
2023-01-23T19:29:22.731Z,12.38
2023-01-23T19:32:06.882Z,11.50
2023-01-23T19:34:35.002Z,11.77
2023-01-23T19:37:07.382Z,12.80
2023-01-23T19:39:34.785Z,13.20
2023-01-23T19:42:02.733Z,12.45
2023-01-23T19:44:30.799Z,12.90
2023-01-23T19:46:58.223Z,13.05
2023-01-23T19:49:25.563Z,11.82
2023-01-23T19:51:53.117Z,12.90
2023-01-23T19:54:24.313Z,13.73
2023-01-23T19:56:52.345Z,14.00
2023-01-23T19:59:19.671Z,13.60
2023-01-23T20:01:52.536Z,14.77
2023-01-23T20:04:22.194Z,13.82
2023-01-23T20:06:51.753Z,13.57
2023-01-23T20:09:19.882Z,14.52
2023-01-23T20:11:48.989Z,13.25
2023-01-23T20:14:18.669Z,13.73
2023-01-23T20:16:45.898Z,13.20
2023-01-23T20:19:16.838Z,14.40
2023-01-23T20:21:46.458Z,14.32
2023-01-23T20:24:15.735Z,13.75
2023-01-23T20:26:43.107Z,15.43
2023-01-23T20:29:11.495Z,14.82
2023-01-23T20:31:40.963Z,15.23
2023-01-23T20:34:10.771Z,14.68
2023-01-23T20:36:38.356Z,16.73
2023-01-23T20:39:08.202Z,16.20
2023-01-23T20:41:35.825Z,16.23
2023-01-23T20:44:05.470Z,16.80
2023-01-23T20:46:35.427Z,15.35
2023-01-23T20:49:05.305Z,15.82
2023-01-23T20:51:32.685Z,15.98
2023-01-23T20:54:02.471Z,16.25
2023-01-23T20:56:31.841Z,16.63
2023-01-23T20:59:17.978Z,16.08
2023-01-23T21:02:06.851Z,15.68
2023-01-23T21:04:36.462Z,17.73
2023-01-23T21:07:04.905Z,16.45
2023-01-23T21:09:32.257Z,17.98
2023-01-23T21:12:02.376Z,16.30
2023-01-23T21:14:30.214Z,16.23
2023-01-23T21:16:58.361Z,16.77
2023-01-23T21:19:26.591Z,17.73
2023-01-23T21:21:54.260Z,17.65
2023-01-23T21:24:21.573Z,17.05
2023-01-23T21:26:49.369Z,15.05
2023-01-23T21:29:21.249Z,15.38
2023-01-23T21:31:49.359Z,15.32
2023-01-23T21:34:19.273Z,15.50
2023-01-23T21:36:46.529Z,16.38
2023-01-23T21:39:15.181Z,15.88
2023-01-23T21:41:45.237Z,15.20
2023-01-23T21:44:12.730Z,16.55
2023-01-23T21:46:43.068Z,16.88
2023-01-23T21:49:12.944Z,17.05
2023-01-23T21:51:45.208Z,18.23
2023-01-23T21:54:12.615Z,16.25
2023-01-23T21:56:42.359Z,17.23
2023-01-23T21:59:09.654Z,18.30
2023-01-23T22:01:39.356Z,17.02
2023-01-23T22:04:10.323Z,16.63
2023-01-23T22:06:40.044Z,17.80
2023-01-23T22:09:08.359Z,18.08
2023-01-23T22:11:38.130Z,18.33
2023-01-23T22:14:05.507Z,16.92
2023-01-23T22:16:51.292Z,17.00
2023-01-23T22:19:24.935Z,18.17
2023-01-23T22:21:57.143Z,17.80
2023-01-23T22:24:26.984Z,17.65
2023-01-23T22:26:54.261Z,17.60
2023-01-23T22:29:22.925Z,19.30
2023-01-23T22:31:51.266Z,17.42
2023-01-23T22:34:21.001Z,18.98
2023-01-23T22:36:48.266Z,19.10
2023-01-23T22:39:19.795Z,19.35
2023-01-23T22:41:48.432Z,18.40
2023-01-23T22:44:18.121Z,17.38
2023-01-23T22:46:45.462Z,18.42
2023-01-23T22:49:12.715Z,18.58
2023-01-23T22:51:40.020Z,18.27
2023-01-23T22:54:09.636Z,17.92
2023-01-23T22:56:37.231Z,19.70
2023-01-23T22:59:04.596Z,18.85
2023-01-23T23:01:31.887Z,18.75
2023-01-23T23:04:00.253Z,19.70
2023-01-23T23:06:30.308Z,18.35
2023-01-23T23:08:59.779Z,19.58
2023-01-23T23:11:28.250Z,18.73
2023-01-23T23:13:58.666Z,19.25
2023-01-23T23:16:32.106Z,18.38
2023-01-23T23:19:01.904Z,18.08
2023-01-23T23:21:36.094Z,18.52
2023-01-23T23:24:06.048Z,18.80
2023-01-23T23:26:36.455Z,18.52
2023-01-23T23:29:07.107Z,18.40
2023-01-23T23:31:36.925Z,18.35
2023-01-23T23:34:06.496Z,17.73
2023-01-23T23:36:36.560Z,17.80
2023-01-23T23:39:03.903Z,17.33
2023-01-23T23:41:33.409Z,17.85
2023-01-23T23:44:05.855Z,18.15
2023-01-23T23:46:35.231Z,18.37
2023-01-23T23:49:02.500Z,16.80
2023-01-23T23:51:34.479Z,17.88
2023-01-23T23:54:04.377Z,16.83
2023-01-23T23:56:32.247Z,17.77
2023-01-23T23:59:01.995Z,19.35
